sensor_id;sensor_type;location;lat;lon;timestamp;pressure;altitude;pressure_sealevel;temperature;humidity
25526;BME280;13424;48.424;11.258;2023-07-13T03:14:03;95623.56;;;21.44;96.80
25526;BME280;13424;48.424;11.258;2023-07-13T03:16:33;95628.31;;;21.61;95.43
25526;BME280;13424;48.424;11.258;2023-07-13T03:19:00;95630.63;;;21.32;97.04
25526;BME280;13424;48.424;11.258;2023-07-13T03:21:27;95626.63;;;21.74;94.85
25526;BME280;13424;48.424;11.258;2023-07-13T03:28:19;95648.28;;;21.65;94.57
25526;BME280;13424;48.424;11.258;2023-07-13T03:30:46;95660.44;;;21.68;94.50
25526;BME280;13424;48.424;11.258;2023-07-13T03:33:11;95656.25;;;21.62;95.06
25526;BME280;13424;48.424;11.258;2023-07-13T03:35:41;95653.22;;;21.63;94.62
25526;BME280;13424;48.424;11.258;2023-07-13T03:38:07;95652.94;;;21.65;94.19
25526;BME280;13424;48.424;11.258;2023-07-13T03:40:33;95647.56;;;21.73;93.68
25526;BME280;13424;48.424;11.258;2023-07-13T03:42:59;95654.88;;;21.51;94.26
25526;BME280;13424;48.424;11.258;2023-07-13T06:49:04;95786.22;;;23.06;71.90
25526;BME280;13424;48.424;11.258;2023-07-13T06:51:30;95787.28;;;22.66;72.46
25526;BME280;13424;48.424;11.258;2023-07-13T06:53:56;95783.13;;;22.60;72.44
25526;BME280;13424;48.424;11.258;2023-07-13T06:56:22;95793.50;;;23.20;70.54
25526;BME280;13424;48.424;11.258;2023-07-13T07:56:09;95841.38;;;22.67;71.73
25526;BME280;13424;48.424;11.258;2023-07-13T07:58:35;95849.09;;;23.05;71.30
25526;BME280;13424;48.424;11.258;2023-07-13T08:01:06;95850.25;;;23.52;68.44
25526;BME280;13424;48.424;11.258;2023-07-13T08:03:32;95853.28;;;23.42;67.18
25526;BME280;13424;48.424;11.258;2023-07-13T08:05:58;95843.88;;;23.57;66.48
25526;BME280;13424;48.424;11.258;2023-07-13T08:08:25;95847.66;;;23.87;68.18
25526;BME280;13424;48.424;11.258;2023-07-13T08:10:51;95844.34;;;24.33;63.85
25526;BME280;13424;48.424;11.258;2023-07-13T08:13:17;95846.06;;;24.03;64.89
25526;BME280;13424;48.424;11.258;2023-07-13T08:15:43;95846.41;;;24.28;64.67
25526;BME280;13424;48.424;11.258;2023-07-13T08:18:09;95854.25;;;24.20;65.53
25526;BME280;13424;48.424;11.258;2023-07-13T08:20:39;95859.56;;;24.26;64.08
25526;BME280;13424;48.424;11.258;2023-07-13T08:23:07;95856.16;;;23.94;64.72
25526;BME280;13424;48.424;11.258;2023-07-13T08:25:35;95857.75;;;23.86;65.09
25526;BME280;13424;48.424;11.258;2023-07-13T08:28:02;95849.75;;;24.24;63.38
25526;BME280;13424;48.424;11.258;2023-07-13T08:30:29;95846.56;;;24.31;61.51
25526;BME280;13424;48.424;11.258;2023-07-13T08:32:55;95847.69;;;24.39;61.74
25526;BME280;13424;48.424;11.258;2023-07-13T08:35:21;95859.56;;;24.60;62.23
25526;BME280;13424;48.424;11.258;2023-07-13T08:37:47;95858.06;;;24.80;60.16
25526;BME280;13424;48.424;11.258;2023-07-13T08:40:13;95864.22;;;24.51;59.17
25526;BME280;13424;48.424;11.258;2023-07-13T08:42:46;95860.59;;;25.02;60.91
25526;BME280;13424;48.424;11.258;2023-07-13T08:45:48;95852.25;;;24.99;60.56
25526;BME280;13424;48.424;11.258;2023-07-13T08:52:02;95869.94;;;24.06;62.77
25526;BME280;13424;48.424;11.258;2023-07-13T08:54:39;95870.63;;;24.46;65.10
25526;BME280;13424;48.424;11.258;2023-07-13T08:57:21;95868.94;;;25.15;59.94
25526;BME280;13424;48.424;11.258;2023-07-13T08:59:50;95871.22;;;24.78;61.10
25526;BME280;13424;48.424;11.258;2023-07-13T09:02:54;95873.63;;;24.97;59.92
25526;BME280;13424;48.424;11.258;2023-07-13T09:05:33;95866.94;;;24.68;62.45
25526;BME280;13424;48.424;11.258;2023-07-13T09:09:34;95877.44;;;24.96;60.47
25526;BME280;13424;48.424;11.258;2023-07-13T09:12:17;95864.94;;;25.12;60.50
25526;BME280;13424;48.424;11.258;2023-07-13T09:14:58;95882.50;;;25.41;60.60
25526;BME280;13424;48.424;11.258;2023-07-13T09:17:45;95869.00;;;25.44;61.61
25526;BME280;13424;48.424;11.258;2023-07-13T09:20:49;95879.59;;;25.46;60.33
25526;BME280;13424;48.424;11.258;2023-07-13T09:23:23;95878.50;;;25.38;59.54
25526;BME280;13424;48.424;11.258;2023-07-13T09:25:58;95867.38;;;25.05;60.58
25526;BME280;13424;48.424;11.258;2023-07-13T09:28:39;95878.78;;;24.72;63.58
25526;BME280;13424;48.424;11.258;2023-07-13T09:31:20;95875.91;;;25.42;59.50
25526;BME280;13424;48.424;11.258;2023-07-13T09:33:49;95868.97;;;25.06;59.27
25526;BME280;13424;48.424;11.258;2023-07-13T09:36:32;95868.28;;;25.56;58.62
25526;BME280;13424;48.424;11.258;2023-07-13T09:39:35;95876.88;;;26.55;55.00
25526;BME280;13424;48.424;11.258;2023-07-13T09:42:19;95887.22;;;26.20;55.86
25526;BME280;13424;48.424;11.258;2023-07-13T09:45:00;95884.75;;;26.27;54.75
25526;BME280;13424;48.424;11.258;2023-07-13T09:47:39;95889.72;;;27.09;55.62
25526;BME280;13424;48.424;11.258;2023-07-13T09:50:16;95881.75;;;26.20;57.07
25526;BME280;13424;48.424;11.258;2023-07-13T09:52:49;95881.94;;;25.94;56.85
25526;BME280;13424;48.424;11.258;2023-07-13T09:55:37;95880.41;;;26.05;56.49
25526;BME280;13424;48.424;11.258;2023-07-13T09:58:21;95879.53;;;26.64;55.07
25526;BME280;13424;48.424;11.258;2023-07-13T10:01:04;95883.50;;;26.25;54.01
25526;BME280;13424;48.424;11.258;2023-07-13T10:03:35;95878.66;;;26.84;52.52
25526;BME280;13424;48.424;11.258;2023-07-13T10:06:18;95874.66;;;25.77;54.69
25526;BME280;13424;48.424;11.258;2023-07-13T10:08:46;95878.31;;;25.81;54.05
25526;BME280;13424;48.424;11.258;2023-07-13T10:11:27;95878.03;;;25.74;52.60
25526;BME280;13424;48.424;11.258;2023-07-13T10:13:58;95886.06;;;26.51;53.92
25526;BME280;13424;48.424;11.258;2023-07-13T10:16:35;95880.56;;;25.79;53.33
25526;BME280;13424;48.424;11.258;2023-07-13T10:19:21;95880.09;;;26.69;50.92
25526;BME280;13424;48.424;11.258;2023-07-13T10:21:58;95880.69;;;26.75;53.05
25526;BME280;13424;48.424;11.258;2023-07-13T10:24:33;95890.06;;;26.53;53.93
25526;BME280;13424;48.424;11.258;2023-07-13T10:27:16;95885.53;;;26.90;50.84
25526;BME280;13424;48.424;11.258;2023-07-13T10:30:17;95882.06;;;25.68;49.13
25526;BME280;13424;48.424;11.258;2023-07-13T10:32:46;95877.88;;;26.21;52.86
25526;BME280;13424;48.424;11.258;2023-07-13T10:35:16;95878.78;;;27.09;53.15
25526;BME280;13424;48.424;11.258;2023-07-13T10:38:05;95886.25;;;26.99;53.71
25526;BME280;13424;48.424;11.258;2023-07-13T10:40:58;95885.91;;;26.68;51.88
25526;BME280;13424;48.424;11.258;2023-07-13T10:43:33;95890.31;;;25.04;51.14
25526;BME280;13424;48.424;11.258;2023-07-13T10:46:06;95891.19;;;26.31;50.90
25526;BME280;13424;48.424;11.258;2023-07-13T10:48:34;95884.34;;;25.96;50.56
25526;BME280;13424;48.424;11.258;2023-07-13T10:51:05;95893.25;;;26.34;51.18
25526;BME280;13424;48.424;11.258;2023-07-13T10:53:38;95898.97;;;26.21;51.83
25526;BME280;13424;48.424;11.258;2023-07-13T10:58:43;95892.00;;;26.02;53.84
25526;BME280;13424;48.424;11.258;2023-07-13T11:01:16;95894.28;;;26.84;50.54
25526;BME280;13424;48.424;11.258;2023-07-13T11:04:03;95897.47;;;27.07;52.30
25526;BME280;13424;48.424;11.258;2023-07-13T11:06:34;95891.84;;;25.31;51.24
25526;BME280;13424;48.424;11.258;2023-07-13T11:09:36;95896.56;;;24.87;51.30
25526;BME280;13424;48.424;11.258;2023-07-13T11:22:49;95897.28;;;25.78;52.72
25526;BME280;13424;48.424;11.258;2023-07-13T11:25:28;95897.34;;;26.20;53.40
25526;BME280;13424;48.424;11.258;2023-07-13T11:28:21;95896.38;;;27.32;50.55
25526;BME280;13424;48.424;11.258;2023-07-13T11:33:56;95883.97;;;27.02;49.23
25526;BME280;13424;48.424;11.258;2023-07-13T11:36:29;95883.25;;;26.38;52.72
25526;BME280;13424;48.424;11.258;2023-07-13T11:39:13;95883.03;;;27.31;52.51
25526;BME280;13424;48.424;11.258;2023-07-13T11:41:55;95875.13;;;27.05;53.15
25526;BME280;13424;48.424;11.258;2023-07-13T11:44:25;95878.38;;;27.55;53.09
25526;BME280;13424;48.424;11.258;2023-07-13T11:46:56;95869.47;;;27.01;53.16
25526;BME280;13424;48.424;11.258;2023-07-13T11:49:26;95873.53;;;27.16;53.13
25526;BME280;13424;48.424;11.258;2023-07-13T11:51:56;95871.69;;;27.08;52.20
25526;BME280;13424;48.424;11.258;2023-07-13T11:54:50;95872.19;;;26.56;53.33
25526;BME280;13424;48.424;11.258;2023-07-13T11:57:39;95872.91;;;26.65;53.99
25526;BME280;13424;48.424;11.258;2023-07-13T12:00:23;95882.81;;;27.23;51.36
25526;BME280;13424;48.424;11.258;2023-07-13T12:02:59;95874.63;;;27.48;51.20
25526;BME280;13424;48.424;11.258;2023-07-13T12:05:27;95874.22;;;27.13;50.91
25526;BME280;13424;48.424;11.258;2023-07-13T12:07:53;95871.88;;;27.48;51.26
25526;BME280;13424;48.424;11.258;2023-07-13T12:10:29;95865.38;;;27.40;54.80
25526;BME280;13424;48.424;11.258;2023-07-13T12:13:08;95869.38;;;28.28;50.60
25526;BME280;13424;48.424;11.258;2023-07-13T12:15:42;95874.25;;;27.25;50.88
25526;BME280;13424;48.424;11.258;2023-07-13T12:18:30;95867.16;;;27.12;52.49
25526;BME280;13424;48.424;11.258;2023-07-13T12:20:59;95866.34;;;27.69;52.80
25526;BME280;13424;48.424;11.258;2023-07-13T12:23:33;95860.75;;;28.42;50.23
25526;BME280;13424;48.424;11.258;2023-07-13T12:26:04;95863.47;;;27.90;51.35
25526;BME280;13424;48.424;11.258;2023-07-13T12:28:43;95851.00;;;26.98;51.50
25526;BME280;13424;48.424;11.258;2023-07-13T12:31:39;95849.66;;;27.98;51.62
25526;BME280;13424;48.424;11.258;2023-07-13T12:34:17;95850.00;;;27.85;50.46
25526;BME280;13424;48.424;11.258;2023-07-13T12:37:02;95850.09;;;27.88;53.74
25526;BME280;13424;48.424;11.258;2023-07-13T12:39:47;95839.81;;;27.61;51.28
25526;BME280;13424;48.424;11.258;2023-07-13T12:42:31;95844.50;;;26.90;51.47
25526;BME280;13424;48.424;11.258;2023-07-13T12:45:17;95843.25;;;26.55;52.80
25526;BME280;13424;48.424;11.258;2023-07-13T12:47:49;95834.13;;;27.66;52.00
25526;BME280;13424;48.424;11.258;2023-07-13T12:50:23;95837.44;;;27.59;50.78
25526;BME280;13424;48.424;11.258;2023-07-13T12:53:02;95824.59;;;27.02;49.38
25526;BME280;13424;48.424;11.258;2023-07-13T12:55:29;95834.09;;;27.17;50.56
25526;BME280;13424;48.424;11.258;2023-07-13T12:58:03;95827.03;;;26.83;49.72
25526;BME280;13424;48.424;11.258;2023-07-13T13:00:37;95824.91;;;27.70;51.11
25526;BME280;13424;48.424;11.258;2023-07-13T13:03:45;95823.84;;;27.26;49.77
25526;BME280;13424;48.424;11.258;2023-07-13T13:08:48;95814.84;;;27.50;50.51
25526;BME280;13424;48.424;11.258;2023-07-13T13:11:19;95809.56;;;28.46;50.01
25526;BME280;13424;48.424;11.258;2023-07-13T13:13:45;95815.09;;;28.22;50.53
25526;BME280;13424;48.424;11.258;2023-07-13T13:16:28;95815.97;;;27.98;51.04
25526;BME280;13424;48.424;11.258;2023-07-13T13:18:59;95812.91;;;28.27;49.75
25526;BME280;13424;48.424;11.258;2023-07-13T13:21:27;95811.09;;;27.67;52.52
25526;BME280;13424;48.424;11.258;2023-07-13T13:23:53;95801.03;;;28.63;51.39
25526;BME280;13424;48.424;11.258;2023-07-13T13:26:22;95803.19;;;27.77;50.60
25526;BME280;13424;48.424;11.258;2023-07-13T13:28:48;95796.00;;;28.81;49.28
25526;BME280;13424;48.424;11.258;2023-07-13T13:31:14;95800.69;;;28.37;50.08
25526;BME280;13424;48.424;11.258;2023-07-13T13:33:44;95808.38;;;29.03;48.59
25526;BME280;13424;48.424;11.258;2023-07-13T13:36:22;95811.56;;;28.61;47.88
25526;BME280;13424;48.424;11.258;2023-07-13T13:38:50;95810.41;;;27.70;49.56
25526;BME280;13424;48.424;11.258;2023-07-13T13:41:16;95815.28;;;27.52;50.18
25526;BME280;13424;48.424;11.258;2023-07-13T13:43:43;95806.72;;;27.29;50.42
25526;BME280;13424;48.424;11.258;2023-07-13T13:46:20;95807.75;;;27.37;51.04
25526;BME280;13424;48.424;11.258;2023-07-13T13:48:48;95813.84;;;26.97;51.84
25526;BME280;13424;48.424;11.258;2023-07-13T13:51:21;95813.94;;;26.88;52.08
25526;BME280;13424;48.424;11.258;2023-07-13T13:53:48;95810.13;;;26.68;52.99
25526;BME280;13424;48.424;11.258;2023-07-13T13:56:18;95816.53;;;26.85;53.87
25526;BME280;13424;48.424;11.258;2023-07-13T13:58:44;95811.34;;;26.59;52.42
25526;BME280;13424;48.424;11.258;2023-07-13T14:01:21;95809.22;;;26.64;52.24
25526;BME280;13424;48.424;11.258;2023-07-13T14:03:48;95811.50;;;26.62;52.13
25526;BME280;13424;48.424;11.258;2023-07-13T14:06:19;95802.84;;;26.39;53.92
25526;BME280;13424;48.424;11.258;2023-07-13T14:08:46;95809.91;;;27.07;51.54
25526;BME280;13424;48.424;11.258;2023-07-13T14:11:16;95812.09;;;26.80;53.09
25526;BME280;13424;48.424;11.258;2023-07-13T14:13:56;95805.50;;;26.93;51.38
25526;BME280;13424;48.424;11.258;2023-07-13T14:16:29;95805.34;;;26.65;51.38
25526;BME280;13424;48.424;11.258;2023-07-13T14:18:57;95806.69;;;26.38;50.69
25526;BME280;13424;48.424;11.258;2023-07-13T14:21:29;95811.16;;;26.76;52.07
25526;BME280;13424;48.424;11.258;2023-07-13T14:23:55;95810.56;;;26.16;52.65
25526;BME280;13424;48.424;11.258;2023-07-13T14:26:26;95808.19;;;26.15;51.38
25526;BME280;13424;48.424;11.258;2023-07-13T14:28:56;95818.03;;;26.82;52.01
25526;BME280;13424;48.424;11.258;2023-07-13T14:31:26;95812.19;;;26.71;53.11
25526;BME280;13424;48.424;11.258;2023-07-13T14:33:54;95813.97;;;26.55;50.14
25526;BME280;13424;48.424;11.258;2023-07-13T14:36:33;95810.84;;;27.35;50.37
25526;BME280;13424;48.424;11.258;2023-07-13T14:39:10;95811.22;;;28.23;48.39
25526;BME280;13424;48.424;11.258;2023-07-13T14:41:37;95801.75;;;28.20;47.62
25526;BME280;13424;48.424;11.258;2023-07-13T14:44:17;95801.19;;;28.55;45.83
25526;BME280;13424;48.424;11.258;2023-07-13T14:46:45;95810.28;;;28.87;47.42
25526;BME280;13424;48.424;11.258;2023-07-13T14:49:38;95810.38;;;28.90;47.25
25526;BME280;13424;48.424;11.258;2023-07-13T14:52:16;95806.66;;;28.55;47.63
25526;BME280;13424;48.424;11.258;2023-07-13T14:54:43;95805.38;;;29.40;46.13
25526;BME280;13424;48.424;11.258;2023-07-13T14:57:17;95804.97;;;28.50;48.67
25526;BME280;13424;48.424;11.258;2023-07-13T14:59:44;95811.88;;;28.88;48.04
25526;BME280;13424;48.424;11.258;2023-07-13T15:02:34;95799.28;;;28.43;46.42
25526;BME280;13424;48.424;11.258;2023-07-13T15:05:17;95795.00;;;28.30;46.96
25526;BME280;13424;48.424;11.258;2023-07-13T15:07:44;95804.97;;;28.10;48.64
25526;BME280;13424;48.424;11.258;2023-07-13T15:10:20;95797.00;;;28.45;47.92
25526;BME280;13424;48.424;11.258;2023-07-13T15:13:33;95798.28;;;27.22;47.22
25526;BME280;13424;48.424;11.258;2023-07-13T15:16:00;95799.25;;;26.60;47.76
25526;BME280;13424;48.424;11.258;2023-07-13T15:18:27;95800.09;;;27.91;46.60
25526;BME280;13424;48.424;11.258;2023-07-13T15:20:54;95793.50;;;27.43;47.10
25526;BME280;13424;48.424;11.258;2023-07-13T15:23:22;95802.28;;;28.26;46.89
25526;BME280;13424;48.424;11.258;2023-07-13T15:25:49;95787.91;;;27.52;47.13
25526;BME280;13424;48.424;11.258;2023-07-13T15:28:15;95793.94;;;27.33;47.44
25526;BME280;13424;48.424;11.258;2023-07-13T15:30:48;95801.53;;;28.97;47.13
25526;BME280;13424;48.424;11.258;2023-07-13T15:33:29;95796.25;;;27.68;45.84
25526;BME280;13424;48.424;11.258;2023-07-13T15:35:56;95797.00;;;27.93;47.76
25526;BME280;13424;48.424;11.258;2023-07-13T15:38:30;95801.69;;;28.45;45.15
25526;BME280;13424;48.424;11.258;2023-07-13T15:40:57;95799.56;;;27.73;43.91
25526;BME280;13424;48.424;11.258;2023-07-13T15:43:25;95788.84;;;28.77;43.33
25526;BME280;13424;48.424;11.258;2023-07-13T15:45:51;95796.38;;;27.02;45.01
25526;BME280;13424;48.424;11.258;2023-07-13T15:48:22;95791.75;;;28.40;47.00
25526;BME280;13424;48.424;11.258;2023-07-13T15:50:53;95801.06;;;28.51;45.85
25526;BME280;13424;48.424;11.258;2023-07-13T15:53:25;95800.44;;;27.41;47.49
25526;BME280;13424;48.424;11.258;2023-07-13T15:55:54;95796.78;;;27.98;46.33
25526;BME280;13424;48.424;11.258;2023-07-13T15:58:19;95803.06;;;27.62;47.23
25526;BME280;13424;48.424;11.258;2023-07-13T16:00:46;95796.59;;;26.84;48.69
25526;BME280;13424;48.424;11.258;2023-07-13T16:03:15;95808.00;;;26.53;48.09
25526;BME280;13424;48.424;11.258;2023-07-13T16:05:40;95802.00;;;26.60;46.66
25526;BME280;13424;48.424;11.258;2023-07-13T16:08:30;95798.19;;;26.85;45.96
25526;BME280;13424;48.424;11.258;2023-07-13T16:10:59;95796.34;;;27.22;48.60
25526;BME280;13424;48.424;11.258;2023-07-13T16:13:26;95804.00;;;27.41;50.09
25526;BME280;13424;48.424;11.258;2023-07-13T16:15:53;95805.47;;;27.26;47.47
25526;BME280;13424;48.424;11.258;2023-07-13T16:18:22;95795.88;;;28.34;47.76
25526;BME280;13424;48.424;11.258;2023-07-13T16:20:48;95799.66;;;28.57;45.83
25526;BME280;13424;48.424;11.258;2023-07-13T16:23:17;95789.69;;;28.93;43.44
25526;BME280;13424;48.424;11.258;2023-07-13T16:25:43;95791.72;;;29.28;43.32
25526;BME280;13424;48.424;11.258;2023-07-13T16:28:12;95793.38;;;28.85;43.31
25526;BME280;13424;48.424;11.258;2023-07-13T16:30:38;95799.09;;;29.24;44.34
25526;BME280;13424;48.424;11.258;2023-07-13T16:33:06;95797.47;;;29.23;44.09
25526;BME280;13424;48.424;11.258;2023-07-13T16:35:40;95798.09;;;30.14;43.53
25526;BME280;13424;48.424;11.258;2023-07-13T16:38:20;95803.50;;;29.75;44.15
25526;BME280;13424;48.424;11.258;2023-07-13T16:40:46;95803.63;;;28.88;43.83
25526;BME280;13424;48.424;11.258;2023-07-13T16:43:18;95806.78;;;29.65;43.80
25526;BME280;13424;48.424;11.258;2023-07-13T16:45:47;95807.25;;;30.02;42.21
25526;BME280;13424;48.424;11.258;2023-07-13T16:48:22;95809.38;;;29.93;42.13
25526;BME280;13424;48.424;11.258;2023-07-13T16:50:57;95803.31;;;30.58;42.05
25526;BME280;13424;48.424;11.258;2023-07-13T16:53:27;95812.88;;;30.45;40.91
25526;BME280;13424;48.424;11.258;2023-07-13T16:55:54;95808.22;;;30.88;41.81
25526;BME280;13424;48.424;11.258;2023-07-13T16:58:28;95810.84;;;30.22;42.00
25526;BME280;13424;48.424;11.258;2023-07-13T17:00:58;95805.88;;;30.67;41.08
25526;BME280;13424;48.424;11.258;2023-07-13T17:03:24;95811.84;;;30.53;40.88
25526;BME280;13424;48.424;11.258;2023-07-13T17:05:53;95806.44;;;30.76;41.21
25526;BME280;13424;48.424;11.258;2023-07-13T17:08:33;95816.41;;;30.65;41.75
25526;BME280;13424;48.424;11.258;2023-07-13T17:11:01;95806.94;;;30.62;41.35
25526;BME280;13424;48.424;11.258;2023-07-13T17:13:29;95812.13;;;31.06;41.94
25526;BME280;13424;48.424;11.258;2023-07-13T17:15:56;95812.03;;;31.45;41.63
25526;BME280;13424;48.424;11.258;2023-07-13T17:18:31;95814.59;;;30.92;40.97
25526;BME280;13424;48.424;11.258;2023-07-13T17:21:13;95806.66;;;30.28;42.47
25526;BME280;13424;48.424;11.258;2023-07-13T17:23:39;95818.22;;;30.38;42.39
25526;BME280;13424;48.424;11.258;2023-07-13T17:26:05;95814.16;;;30.12;43.17
25526;BME280;13424;48.424;11.258;2023-07-13T17:28:32;95812.38;;;29.53;43.92
25526;BME280;13424;48.424;11.258;2023-07-13T17:30:59;95806.72;;;28.86;44.69
25526;BME280;13424;48.424;11.258;2023-07-13T17:33:37;95811.09;;;28.59;46.29
25526;BME280;13424;48.424;11.258;2023-07-13T17:36:14;95813.16;;;28.22;47.96
25526;BME280;13424;48.424;11.258;2023-07-13T17:38:49;95807.19;;;27.31;50.31
25526;BME280;13424;48.424;11.258;2023-07-13T17:41:22;95810.47;;;27.49;49.87
25526;BME280;13424;48.424;11.258;2023-07-13T17:43:50;95808.34;;;27.42;51.49
25526;BME280;13424;48.424;11.258;2023-07-13T17:46:28;95814.84;;;27.25;50.43
25526;BME280;13424;48.424;11.258;2023-07-13T17:48:55;95815.16;;;27.24;50.56
25526;BME280;13424;48.424;11.258;2023-07-13T17:51:21;95814.25;;;27.32;51.91
25526;BME280;13424;48.424;11.258;2023-07-13T17:53:51;95817.03;;;26.87;50.75
25526;BME280;13424;48.424;11.258;2023-07-13T17:56:17;95814.50;;;26.82;51.46
25526;BME280;13424;48.424;11.258;2023-07-13T17:58:44;95811.66;;;26.78;49.65
25526;BME280;13424;48.424;11.258;2023-07-13T18:01:16;95812.66;;;26.74;49.62
25526;BME280;13424;48.424;11.258;2023-07-13T18:03:44;95813.00;;;26.84;50.90
25526;BME280;13424;48.424;11.258;2023-07-13T18:06:31;95811.22;;;26.88;51.49
25526;BME280;13424;48.424;11.258;2023-07-13T18:09:27;95825.38;;;26.69;54.85
25526;BME280;13424;48.424;11.258;2023-07-13T18:11:54;95822.63;;;26.57;54.33
25526;BME280;13424;48.424;11.258;2023-07-13T18:14:21;95824.75;;;26.52;54.72
25526;BME280;13424;48.424;11.258;2023-07-13T18:16:55;95818.47;;;26.39;57.38
25526;BME280;13424;48.424;11.258;2023-07-13T18:19:44;95829.22;;;26.14;54.96
25526;BME280;13424;48.424;11.258;2023-07-13T18:22:16;95832.81;;;26.06;56.75
25526;BME280;13424;48.424;11.258;2023-07-13T18:24:44;95829.56;;;26.13;57.80
25526;BME280;13424;48.424;11.258;2023-07-13T18:27:10;95828.06;;;25.74;58.35
25526;BME280;13424;48.424;11.258;2023-07-13T18:29:37;95821.31;;;25.42;58.68
25526;BME280;13424;48.424;11.258;2023-07-13T18:32:05;95832.22;;;25.12;57.92
25526;BME280;13424;48.424;11.258;2023-07-13T18:34:38;95828.41;;;25.34;57.34
25526;BME280;13424;48.424;11.258;2023-07-13T18:37:20;95828.69;;;25.41;60.01
25526;BME280;13424;48.424;11.258;2023-07-13T18:39:51;95834.03;;;25.38;60.69
25526;BME280;13424;48.424;11.258;2023-07-13T18:42:21;95832.34;;;25.16;60.98
25526;BME280;13424;48.424;11.258;2023-07-13T18:44:48;95831.13;;;24.78;61.35
25526;BME280;13424;48.424;11.258;2023-07-13T18:47:20;95842.41;;;24.60;61.00
25526;BME280;13424;48.424;11.258;2023-07-13T18:49:49;95831.25;;;24.99;61.26
25526;BME280;13424;48.424;11.258;2023-07-13T18:52:20;95844.28;;;24.85;62.34
25526;BME280;13424;48.424;11.258;2023-07-13T18:54:47;95837.09;;;24.63;61.14
25526;BME280;13424;48.424;11.258;2023-07-13T18:57:17;95836.78;;;24.73;62.70
25526;BME280;13424;48.424;11.258;2023-07-13T18:59:44;95839.69;;;24.51;59.79
25526;BME280;13424;48.424;11.258;2023-07-13T19:02:15;95844.47;;;24.54;59.65
25526;BME280;13424;48.424;11.258;2023-07-13T19:04:42;95840.97;;;24.54;63.71
25526;BME280;13424;48.424;11.258;2023-07-13T19:07:10;95842.09;;;24.44;62.26
25526;BME280;13424;48.424;11.258;2023-07-13T19:09:37;95849.72;;;23.90;60.75
25526;BME280;13424;48.424;11.258;2023-07-13T19:12:17;95854.56;;;24.28;62.90
25526;BME280;13424;48.424;11.258;2023-07-13T19:14:47;95849.75;;;24.24;61.50
25526;BME280;13424;48.424;11.258;2023-07-13T19:17:14;95853.44;;;24.29;62.49
25526;BME280;13424;48.424;11.258;2023-07-13T19:19:41;95852.81;;;24.14;62.33
25526;BME280;13424;48.424;11.258;2023-07-13T19:22:16;95847.19;;;24.19;60.04
25526;BME280;13424;48.424;11.258;2023-07-13T19:24:43;95848.16;;;24.23;63.00
25526;BME280;13424;48.424;11.258;2023-07-13T19:27:12;95864.97;;;24.08;61.44
25526;BME280;13424;48.424;11.258;2023-07-13T19:29:40;95869.72;;;23.77;61.47
25526;BME280;13424;48.424;11.258;2023-07-13T19:32:10;95874.56;;;23.80;61.50
25526;BME280;13424;48.424;11.258;2023-07-13T19:34:36;95878.09;;;23.89;63.63
25526;BME280;13424;48.424;11.258;2023-07-13T19:39:41;95880.84;;;24.06;63.13
25526;BME280;13424;48.424;11.258;2023-07-13T19:44:47;95892.59;;;23.67;63.95
25526;BME280;13424;48.424;11.258;2023-07-13T19:47:15;95885.91;;;23.82;64.69
25526;BME280;13424;48.424;11.258;2023-07-13T19:49:42;95893.94;;;23.78;63.47
25526;BME280;13424;48.424;11.258;2023-07-13T19:52:15;95886.06;;;23.85;62.16
25526;BME280;13424;48.424;11.258;2023-07-13T19:54:43;95899.84;;;23.72;66.18
25526;BME280;13424;48.424;11.258;2023-07-13T19:57:18;95901.31;;;23.86;62.95
25526;BME280;13424;48.424;11.258;2023-07-13T19:59:44;95905.13;;;23.85;65.82
25526;BME280;13424;48.424;11.258;2023-07-13T20:02:25;95908.66;;;23.77;65.90
25526;BME280;13424;48.424;11.258;2023-07-13T20:04:52;95909.75;;;23.67;65.84
25526;BME280;13424;48.424;11.258;2023-07-13T20:07:22;95912.69;;;23.49;67.19
25526;BME280;13424;48.424;11.258;2023-07-13T20:09:51;95913.31;;;23.46;65.60
25526;BME280;13424;48.424;11.258;2023-07-13T20:12:22;95916.78;;;23.68;66.81
25526;BME280;13424;48.424;11.258;2023-07-13T20:14:52;95917.00;;;23.81;65.88
25526;BME280;13424;48.424;11.258;2023-07-13T20:17:38;95911.50;;;23.63;64.28
25526;BME280;13424;48.424;11.258;2023-07-13T20:20:38;95921.53;;;23.54;65.93
25526;BME280;13424;48.424;11.258;2023-07-13T20:23:14;95922.78;;;23.17;66.23
25526;BME280;13424;48.424;11.258;2023-07-13T20:25:42;95921.34;;;23.20;66.23
25526;BME280;13424;48.424;11.258;2023-07-13T20:28:08;95938.03;;;23.27;67.08
25526;BME280;13424;48.424;11.258;2023-07-13T20:30:45;95930.72;;;23.36;67.41
25526;BME280;13424;48.424;11.258;2023-07-13T20:33:28;95934.97;;;22.97;68.14
25526;BME280;13424;48.424;11.258;2023-07-13T20:36:04;95939.19;;;23.03;68.09
25526;BME280;13424;48.424;11.258;2023-07-13T20:38:30;95936.44;;;23.26;67.56
25526;BME280;13424;48.424;11.258;2023-07-13T20:40:56;95933.59;;;23.31;69.20
25526;BME280;13424;48.424;11.258;2023-07-13T20:43:22;95936.06;;;23.19;69.00
25526;BME280;13424;48.424;11.258;2023-07-13T20:45:57;95949.34;;;23.20;66.52
25526;BME280;13424;48.424;11.258;2023-07-13T20:48:40;95945.63;;;23.07;66.39
25526;BME280;13424;48.424;11.258;2023-07-13T20:51:10;95943.59;;;23.22;66.96
25526;BME280;13424;48.424;11.258;2023-07-13T20:53:36;95945.34;;;23.18;67.28
25526;BME280;13424;48.424;11.258;2023-07-13T20:56:14;95939.13;;;22.58;69.10
25526;BME280;13424;48.424;11.258;2023-07-13T20:58:41;95946.69;;;22.12;69.19
25526;BME280;13424;48.424;11.258;2023-07-13T21:03:47;95952.94;;;21.71;71.58
25526;BME280;13424;48.424;11.258;2023-07-13T21:06:19;95957.84;;;22.38;70.98
25526;BME280;13424;48.424;11.258;2023-07-13T21:08:45;95949.41;;;22.62;67.12
25526;BME280;13424;48.424;11.258;2023-07-13T21:11:13;95951.34;;;22.83;67.19